^^
MeteoGriva-Weather Station Historical Data
Daily Summary for July 11, 2020 Units:  English    Metric   Both
Daily Weekly Monthly Yearly Custom
  High: Low: Average:
Temperature: 86 °F 66.9 °F 76.3 °F
Dew Point: 74.5 °F 62.1 °F 68.5 °F
Humidity: 93.3% 62% 78%
Wind Speed: 7.1mph 0mph 2mph
Wind Gust: 17.4mph - -
Wind- - South
Pressure: 29.9 in 29.8 in -
Precipitation: 0 in    
Historical Graphs
 
 
Tabular Data for July 11, 2020
Time Temperature Dew Point Pressure Wind Wind Speed Wind Gust Humidity Rainfall Rate (Hourly) solar
00:04 71.6 °F 64.8 °F 29.9 in South 3.1 mph 7.6 mph 78.9% 0 in 0 W/m2
00:09 71.6 °F 64.2 °F 29.9 in South 3 mph 10.1 mph 77.6% 0 in 0 W/m2
00:14 71.8 °F 63.9 °F 29.9 in South 3.7 mph 10.1 mph 76% 0 in 0 W/m2
00:19 71.8 °F 63 °F 29.9 in SSW 3.2 mph 10.1 mph 74% 0 in 0 W/m2
00:24 72 °F 63 °F 29.9 in South 3.2 mph 7.6 mph 73.9% 0 in 0 W/m2
00:29 72 °F 63 °F 29.9 in South 4.5 mph 10.1 mph 73.1% 0 in 0 W/m2
00:34 72.5 °F 63.5 °F 29.9 in South 2.6 mph 7.6 mph 73.4% 0 in 0 W/m2
00:39 72.5 °F 63.5 °F 29.9 in South 3.1 mph 7.6 mph 73.4% 0 in 0 W/m2
00:44 72.5 °F 63.3 °F 29.9 in South 1.7 mph 7.6 mph 73% 0 in 0 W/m2
00:49 72.5 °F 63 °F 29.9 in SSW 3.1 mph 10.1 mph 72% 0 in 0 W/m2
00:54 72.7 °F 63.1 °F 29.9 in South 3.5 mph 10.1 mph 72% 0 in 0 W/m2
00:59 72.7 °F 63.1 °F 29.9 in South 3.4 mph 7.6 mph 72% 0 in 0 W/m2
01:04 72.7 °F 63.1 °F 29.9 in South 3 mph 7.6 mph 72.1% 0 in 0 W/m2
01:09 72.7 °F 63.1 °F 29.9 in South 2.6 mph 10.1 mph 72% 0 in 0 W/m2
01:14 72.5 °F 63 °F 29.9 in South 2.5 mph 7.6 mph 72% 0 in 0 W/m2
01:19 72.5 °F 63 °F 29.9 in South 2.9 mph 10.1 mph 72% 0 in 0 W/m2
01:24 72.5 °F 63 °F 29.9 in South 3.2 mph 10.1 mph 72% 0 in 0 W/m2
01:29 72.5 °F 63 °F 29.9 in South 2.5 mph 7.6 mph 72% 0 in 0 W/m2
01:34 72.7 °F 63.3 °F 29.9 in South 3 mph 7.6 mph 72.6% 0 in 0 W/m2
01:39 72.7 °F 63.1 °F 29.9 in South 2.7 mph 10.1 mph 72% 0 in 0 W/m2
01:44 72.7 °F 63.1 °F 29.9 in South 3.7 mph 10.1 mph 72% 0 in 0 W/m2
01:49 72.7 °F 63 °F 29.9 in South 4.1 mph 10.1 mph 71.3% 0 in 0 W/m2
01:54 72.9 °F 63 °F 29.9 in SSE 2.1 mph 7.6 mph 71% 0 in 0 W/m2
01:59 72.9 °F 63 °F 29.9 in South 3 mph 7.6 mph 70.9% 0 in 0 W/m2
02:04 72.9 °F 62.4 °F 29.9 in SSW 3.5 mph 7.6 mph 70% 0 in 0 W/m2
02:09 72.9 °F 62.1 °F 29.9 in South 2.1 mph 7.6 mph 69% 0 in 0 W/m2
02:14 73.8 °F 62.6 °F 29.9 in South 1.9 mph 4.9 mph 68.4% 0 in 0 W/m2
02:19 73.8 °F 62.4 °F 29.9 in SSW 1.6 mph 4.9 mph 67.7% 0 in 0 W/m2
02:24 73.8 °F 62.1 °F 29.9 in South 1.2 mph 4.9 mph 67% 0 in 0 W/m2
02:29 73.9 °F 62.2 °F 29.9 in Calm   4.9 mph 67.1% 0 in 0 W/m2
02:34 74.1 °F 62.8 °F 29.9 in Calm   2.5 mph 67.7% 0 in 0 W/m2
02:39 74.1 °F 63 °F 29.9 in Calm     68% 0 in 0 W/m2
02:44 74.1 °F 63 °F 29.9 in Calm   2.5 mph 68% 0 in 0 W/m2
02:49 73.9 °F 63 °F 29.9 in Calm     68.6% 0 in 0 W/m2
02:54 73.2 °F 63 °F 29.9 in Calm     70.2% 0 in 0 W/m2
02:59 72.9 °F 63.5 °F 29.9 in Calm     72.8% 0 in 0 W/m2
03:04 72.5 °F 63.3 °F 29.9 in Calm     73% 0 in 0 W/m2
03:09 72.3 °F 63.1 °F 29.9 in Calm     73% 0 in 0 W/m2
03:14 71.4 °F 62.6 °F 29.9 in Calm   2.5 mph 73.9% 0 in 0 W/m2
03:19 71.1 °F 66 °F 29.9 in Calm   4.9 mph 84.4% 0 in 0 W/m2
03:24 70.5 °F 66.4 °F 29.9 in Calm     86.7% 0 in 0 W/m2
03:29 70 °F 66.4 °F 29.9 in Calm     88.6% 0 in 0 W/m2
03:34 68 °F 64.2 °F 29.9 in Calm     87.7% 0 in 0 W/m2
03:39 67.3 °F 63.3 °F 29.9 in Calm     86.8% 0 in 0 W/m2
03:44 67.3 °F 62.8 °F 29.9 in Calm     85.4% 0 in 0 W/m2
03:49 67.3 °F 63.1 °F 29.9 in Calm     86.3% 0 in 0 W/m2
03:54 67.6 °F 64.6 °F 29.9 in Calm     90% 0 in 0 W/m2
03:59 67.5 °F 65.1 °F 29.9 in Calm     92.1% 0 in 0 W/m2
04:04 67.5 °F 65.1 °F 29.9 in Calm     92.2% 0 in 0 W/m2
04:09 67.5 °F 64.6 °F 29.9 in Calm     90.7% 0 in 0 W/m2
04:14 67.5 °F 64 °F 29.9 in Calm     89% 0 in 0 W/m2
04:19 67.3 °F 63.9 °F 29.9 in Calm     89% 0 in 0 W/m2
04:24 67.3 °F 64 °F 29.9 in Calm     89.7% 0 in 0 W/m2
04:29 67.3 °F 64.2 °F 29.9 in Calm     89.8% 0 in 0 W/m2
04:34 67.5 °F 64.4 °F 29.9 in Calm     90% 0 in 0 W/m2
04:39 67.5 °F 64.2 °F 29.9 in Calm     89.5% 0 in 0 W/m2
04:44 67.3 °F 64.2 °F 29.9 in Calm   2.5 mph 90% 0 in 0 W/m2
04:49 67.3 °F 64.6 °F 29.9 in Calm     90.9% 0 in 0 W/m2
04:54 67.1 °F 64.2 °F 29.9 in Calm     90.3% 0 in 0 W/m2
04:59 66.9 °F 62.8 °F 29.9 in South 0.3 mph 2.5 mph 86.4% 0 in 0 W/m2
05:04 67.1 °F 62.2 °F 29.9 in South 0.2 mph 4.9 mph 84.7% 0 in 0 W/m2
05:09 67.5 °F 62.4 °F 29.9 in SSW 0.2 mph 4.9 mph 84% 0 in 0 W/m2
05:14 68.4 °F 63.3 °F 29.9 in SSW 0.8 mph 4.9 mph 84% 0 in 0 W/m2
05:19 68.7 °F 63.9 °F 29.9 in SW 0.2 mph 4.9 mph 84.4% 0 in 0 W/m2
05:24 68.7 °F 63.7 °F 29.9 in South 0.6 mph 4.9 mph 84% 0 in 0 W/m2
05:29 68.7 °F 64 °F 29.9 in SSW 0.4 mph 4.9 mph 84.9% 0 in 0 W/m2
05:34 68.5 °F 63.9 °F 29.9 in SSW 0.2 mph 4.9 mph 85% 0 in 0 W/m2
05:39 68.4 °F 63.7 °F 29.9 in SSW 0.6 mph 4.9 mph 85% 0 in 0 W/m2
05:44 68.4 °F 63.7 °F 29.9 in Calm     85% 0 in 0 W/m2
05:49 68.2 °F 63.5 °F 29.9 in South 0.8 mph 7.6 mph 85% 0 in 0 W/m2
05:54 68.4 °F 63.7 °F 29.9 in South 2.2 mph 7.6 mph 85.4% 0 in 0 W/m2
05:59 68.4 °F 64 °F 29.9 in South 2.8 mph 7.6 mph 86.1% 0 in 0 W/m2
06:04 68.4 °F 64.4 °F 29.9 in South 3.2 mph 7.6 mph 87.2% 0 in 0 W/m2
06:09 68.4 °F 64.6 °F 29.9 in South 2.4 mph 7.6 mph 88% 0 in 3 W/m2
06:14 68.4 °F 64.6 °F 29.9 in South 0.9 mph 4.9 mph 88% 0 in 6 W/m2
06:19 68.4 °F 64.6 °F 29.9 in SSW 0.4 mph 7.6 mph 88% 0 in 13 W/m2
06:24 68.4 °F 64.6 °F 29.9 in South 2.4 mph 7.6 mph 88% 0 in 27 W/m2
06:29 68.4 °F 64.6 °F 29.9 in Calm   7.6 mph 87.7% 0 in 42 W/m2
06:34 68.7 °F 64.6 °F 29.9 in SSE 0.3 mph 4.9 mph 87% 0 in 58 W/m2
06:39 69.1 °F 64.9 °F 29.9 in SSW 0.1 mph 4.9 mph 86.3% 0 in 77 W/m2
06:44 69.1 °F 64.8 °F 29.9 in Calm     86% 0 in 92 W/m2
06:49 69.3 °F 64.8 °F 29.9 in Calm     85.9% 0 in 109 W/m2
06:54 69.6 °F 64.9 °F 29.9 in Calm     85.2% 0 in 127 W/m2
06:59 70.2 °F 65.1 °F 29.9 in Calm     84% 0 in 145 W/m2
07:04 70.3 °F 65.3 °F 29.9 in Calm     83.9% 0 in 163 W/m2
07:09 70.5 °F 65.1 °F 29.9 in Calm     83.1% 0 in 176 W/m2
07:14 70.5 °F 65.3 °F 29.9 in Calm     83.3% 0 in 193 W/m2
07:19 70.5 °F 65.5 °F 29.9 in Calm     84.2% 0 in 206 W/m2
07:29 70.2 °F 65.5 °F 29.9 in NNE 0.2 mph 2.5 mph 84.9% 0 in 232 W/m2
07:34 70 °F 65.3 °F 29.9 in Calm   2.5 mph 84.8% 0 in 245 W/m2
07:39 70 °F 65.5 °F 29.9 in Calm     85.3% 0 in 258 W/m2
07:44 70 °F 65.8 °F 29.9 in Calm     86.7% 0 in 267 W/m2
07:49 70 °F 65.5 °F 29.9 in Calm     85.4% 0 in 277 W/m2
07:54 70.9 °F 65.7 °F 29.9 in Calm     83.7% 0 in 288 W/m2
07:59 72.3 °F 66.6 °F 29.9 in Calm     81.9% 0 in 297 W/m2
08:09 73 °F 66.4 °F 29.9 in Calm     79.8% 0 in 314 W/m2
08:14 73.6 °F 67.8 °F 29.9 in SSW 1.1 mph 4.9 mph 82.1% 0 in 319 W/m2
08:19 74.7 °F 68.7 °F 29.9 in Calm   2.5 mph 82% 0 in 326 W/m2
08:24 74.7 °F 68.5 °F 29.9 in SSE 2.4 mph 10.1 mph 82% 0 in 332 W/m2
08:29 74.5 °F 68.5 °F 29.9 in South 3 mph 10.1 mph 82.2% 0 in 337 W/m2
08:34 74.5 °F 68.7 °F 29.9 in South 4.7 mph 10.1 mph 82.8% 0 in 341 W/m2
08:39 74.3 °F 68.7 °F 29.9 in South 3.2 mph 10.1 mph 83% 0 in 348 W/m2
08:44 74.1 °F 68.7 °F 29.9 in SSE 3.6 mph 10.1 mph 83.6% 0 in 352 W/m2
08:49 74.3 °F 68.9 °F 29.9 in South 3.7 mph 10.1 mph 83.4% 0 in 357 W/m2
08:54 74.5 °F 68.9 °F 29.9 in SE 2.4 mph 10.1 mph 82.9% 0 in 362 W/m2
08:59 75.2 °F 69.6 °F 29.9 in South 2.6 mph 7.6 mph 82.9% 0 in 368 W/m2
09:04 75.2 °F 69.6 °F 29.9 in SE 1.6 mph 7.6 mph 83.1% 0 in 373 W/m2
09:09 75.4 °F 70 °F 29.9 in SE 3 mph 7.6 mph 83.7% 0 in 380 W/m2
09:14 75.4 °F 70 °F 29.9 in SSE 3.7 mph 10.1 mph 83.6% 0 in 385 W/m2
09:19 75.7 °F 70.2 °F 29.9 in South 3.3 mph 7.6 mph 82.8% 0 in 389 W/m2
09:24 75.7 °F 70.2 °F 29.9 in SSE 4.6 mph 12.5 mph 82.9% 0 in 392 W/m2
09:29 75.7 °F 70.3 °F 29.9 in South 2.3 mph 12.5 mph 83.3% 0 in 402 W/m2
09:34 75.9 °F 70.2 °F 29.9 in SSE 0.5 mph 10.1 mph 82.2% 0 in 414 W/m2
09:39 76.8 °F 70 °F 29.9 in SSE 2.2 mph 7.6 mph 79.7% 0 in 414 W/m2
09:44 76.8 °F 70 °F 29.9 in SSE 2.6 mph 7.6 mph 79.3% 0 in 415 W/m2
09:49 77 °F 70.5 °F 29.9 in SE 0.7 mph 4.9 mph 80.8% 0 in 428 W/m2
09:54 77 °F 70.5 °F 29.9 in SSE 2.1 mph 4.9 mph 80.6% 0 in 449 W/m2
09:59 77.7 °F 70.7 °F 29.9 in SSE 0.7 mph 7.6 mph 79% 0 in 444 W/m2
10:04 77.7 °F 71.1 °F 29.9 in SSE 2.3 mph 4.9 mph 79.8% 0 in 442 W/m2
10:09 77.7 °F 71.2 °F 29.9 in SSE 1.4 mph 7.6 mph 80.4% 0 in 446 W/m2
10:14 77.9 °F 71.2 °F 29.9 in SSE 1.5 mph 7.6 mph 79.9% 0 in 453 W/m2
10:19 78.4 °F 71.8 °F 29.9 in SSE 0.9 mph 7.6 mph 80% 0 in 461 W/m2
10:24 78.4 °F 71.8 °F 29.9 in SSE 1.2 mph 4.9 mph 80.2% 0 in 455 W/m2
10:29 78.3 °F 72.1 °F 29.9 in South 2.5 mph 10.1 mph 81.2% 0 in 467 W/m2
10:34 78.3 °F 71.8 °F 29.9 in SE 1.7 mph 7.6 mph 80.7% 0 in 467 W/m2
10:39 78.8 °F 72.1 °F 29.9 in SSE 2.8 mph 7.6 mph 80.2% 0 in 476 W/m2
10:44 78.6 °F 72.3 °F 29.9 in SSE 2.2 mph 7.6 mph 81.1% 0 in 483 W/m2
10:49 78.6 °F 71.8 °F 29.9 in South 3.6 mph 10.1 mph 79.6% 0 in 488 W/m2
10:54 78.8 °F 72 °F 29.9 in South 2.5 mph 10.1 mph 79.9% 0 in 486 W/m2
10:59 78.8 °F 72 °F 29.9 in SSE 2.4 mph 10.1 mph 79.8% 0 in 485 W/m2
11:04 78.8 °F 71.8 °F 29.9 in South 1.9 mph 10.1 mph 79.2% 0 in 489 W/m2
11:09 79 °F 72.1 °F 29.9 in SE 2.1 mph 7.6 mph 79.4% 0 in 494 W/m2
11:14 79.2 °F 72 °F 29.9 in SE 2.4 mph 7.6 mph 78.8% 0 in 495 W/m2
11:19 79.7 °F 72.1 °F 29.9 in SSE 3 mph 7.6 mph 78.2% 0 in 499 W/m2
11:24 79.7 °F 72.9 °F 29.9 in SSE 2.4 mph 10.1 mph 79.3% 0 in 500 W/m2
11:29 79.7 °F 72.5 °F 29.9 in South 3.4 mph 10.1 mph 78.7% 0 in 501 W/m2
11:34 79.7 °F 72.5 °F 29.9 in South 2.9 mph 10.1 mph 78.8% 0 in 502 W/m2
11:39 80.4 °F 72.9 °F 29.9 in South 3.4 mph 7.6 mph 77.7% 0 in 507 W/m2
11:44 80.4 °F 72.7 °F 29.9 in South 1.7 mph 7.6 mph 77.7% 0 in 511 W/m2
11:49 80.4 °F 72.9 °F 29.9 in SSE 2.3 mph 7.6 mph 77.8% 0 in 513 W/m2
11:54 80.4 °F 72.5 °F 29.9 in SSE 2.1 mph 7.6 mph 76.7% 0 in 516 W/m2
11:59 80.8 °F 73 °F 29.9 in SE 3.2 mph 10.1 mph 77.1% 0 in 516 W/m2
12:04 80.8 °F 73 °F 29.9 in SE 2.4 mph 12.5 mph 77.2% 0 in 519 W/m2
12:09 81 °F 72.7 °F 29.9 in ESE 1.4 mph 7.6 mph 76.2% 0 in 521 W/m2
12:14 81 °F 72.5 °F 29.9 in SSE 1.9 mph 7.6 mph 75.7% 0 in 523 W/m2
12:19 81.7 °F 73.4 °F 29.9 in SE 1.1 mph 7.6 mph 76% 0 in 526 W/m2
12:24 81.9 °F 73.6 °F 29.9 in SSE 1.4 mph 10.1 mph 76.1% 0 in 530 W/m2
12:29 81.9 °F 73.2 °F 29.9 in South 3.3 mph 10.1 mph 75.2% 0 in 530 W/m2
12:34 81.9 °F 73.2 °F 29.9 in SSE 1.6 mph 7.6 mph 75% 0 in 531 W/m2
12:39 82.9 °F 73.9 °F 29.9 in South 1.7 mph 7.6 mph 74.4% 0 in 536 W/m2
12:44 83.1 °F 74.1 °F 29.9 in SSE 2.4 mph 10.1 mph 74.7% 0 in 536 W/m2
12:49 82.9 °F 73.6 °F 29.9 in South 1.7 mph 7.6 mph 73.5% 0 in 535 W/m2
12:54 82.9 °F 73.9 °F 29.9 in South 2 mph 7.6 mph 74.3% 0 in 538 W/m2
12:59 82 °F 73 °F 29.9 in SSE 2.4 mph 7.6 mph 74.4% 0 in 537 W/m2
13:04 81.9 °F 72.5 °F 29.9 in SE 3.5 mph 10.1 mph 73.4% 0 in 535 W/m2
13:09 82 °F 72.7 °F 29.9 in SE 3.2 mph 10.1 mph 73.4% 0 in 535 W/m2
13:14 82.2 °F 72.7 °F 29.9 in SSE 2.7 mph 10.1 mph 72.8% 0 in 537 W/m2
13:19 83.1 °F 73.2 °F 29.9 in SE 1.1 mph 10.1 mph 71.9% 0 in 538 W/m2
13:24 83.3 °F 73.2 °F 29.9 in SSE 1.7 mph 7.6 mph 71.7% 0 in 539 W/m2
13:29 83.3 °F 72.9 °F 29.9 in SSE 2.1 mph 7.6 mph 70.9% 0 in 542 W/m2
13:34 83.5 °F 73 °F 29.9 in SSE 1.7 mph 7.6 mph 71.2% 0 in 541 W/m2
13:39 83.7 °F 73.2 °F 29.9 in SSE 2.9 mph 7.6 mph 70.8% 0 in 541 W/m2
13:44 83.8 °F 73 °F 29.9 in South 2.5 mph 7.6 mph 70.1% 0 in 539 W/m2
13:49 83.8 °F 72.9 °F 29.9 in SSE 0.4 mph 7.6 mph 69.6% 0 in 540 W/m2
13:54 84 °F 72.9 °F 29.9 in South 4.3 mph 12.5 mph 69.4% 0 in 539 W/m2
13:59 84.2 °F 73.2 °F 29.9 in South 3.5 mph 10.1 mph 69.7% 0 in 537 W/m2
14:04 84.4 °F 73 °F 29.9 in SE 1.7 mph 10.1 mph 68.8% 0 in 539 W/m2
14:09 84.6 °F 73 °F 29.8 in SSE 2.4 mph 7.6 mph 68.6% 0 in 544 W/m2
14:14 84.6 °F 72.9 °F 29.9 in South 1.1 mph 7.6 mph 68.1% 0 in 545 W/m2
14:19 84.9 °F 72.5 °F 29.8 in SSE 2.6 mph 7.6 mph 66.6% 0 in 542 W/m2
14:24 85.1 °F 72.5 °F 29.8 in South 3.7 mph 10.1 mph 66.2% 0 in 543 W/m2
14:29 85.1 °F 72.9 °F 29.8 in SSE 3.3 mph 10.1 mph 66.9% 0 in 542 W/m2
14:34 85.1 °F 72.9 °F 29.8 in South 3.2 mph 10.1 mph 67% 0 in 544 W/m2
14:44 85.3 °F 72.3 °F 29.8 in SSE 1 mph 7.6 mph 65.2% 0 in 546 W/m2
14:49 85.5 °F 72.7 °F 29.8 in South 2.5 mph 10.1 mph 65.6% 0 in 546 W/m2
14:54 85.5 °F 72.7 °F 29.8 in South 2.4 mph 10.1 mph 65.6% 0 in 544 W/m2
14:59 85.8 °F 72.9 °F 29.8 in South 3.2 mph 10.1 mph 65.6% 0 in 546 W/m2
15:04 86 °F 73.2 °F 29.8 in SSW 2.5 mph 12.5 mph 66.1% 0 in 545 W/m2
15:09 85.8 °F 73.2 °F 29.8 in SSW 4.8 mph 12.5 mph 65.9% 0 in 544 W/m2
15:14 85.8 °F 73 °F 29.8 in SSE 2.6 mph 10.1 mph 65.7% 0 in 540 W/m2
15:19 86 °F 72.9 °F 29.8 in SSW 3.7 mph 12.5 mph 65.1% 0 in 541 W/m2
15:24 86 °F 72.9 °F 29.8 in SSE 4.3 mph 10.1 mph 65.1% 0 in 539 W/m2
15:29 86 °F 73 °F 29.8 in South 5.3 mph 12.5 mph 65.2% 0 in 538 W/m2
15:34 86 °F 73.2 °F 29.8 in SSE 5.5 mph 17.4 mph 65.9% 0 in 535 W/m2
15:39 85.6 °F 72.5 °F 29.8 in SSE 2.9 mph 7.6 mph 65.1% 0 in 534 W/m2
15:44 85.5 °F 72.5 °F 29.8 in South 5 mph 12.5 mph 65.4% 0 in 533 W/m2
15:49 85.5 °F 72.5 °F 29.8 in South 4.7 mph 12.5 mph 65.2% 0 in 530 W/m2
15:54 85.5 °F 72.7 °F 29.8 in South 7.1 mph 17.4 mph 65.8% 0 in 528 W/m2
15:59 85.5 °F 72.9 °F 29.8 in South 4.5 mph 12.5 mph 66.1% 0 in 526 W/m2
16:04 85.5 °F 72.9 °F 29.8 in South 3.9 mph 10.1 mph 66.1% 0 in 522 W/m2
16:09 85.5 °F 73.8 °F 29.8 in South 6.8 mph 15 mph 68.3% 0 in 519 W/m2
16:14 85.5 °F 74.3 °F 29.8 in South 6.8 mph 17.4 mph 69.7% 0 in 510 W/m2
16:19 85.3 °F 74.1 °F 29.8 in South 4.1 mph 12.5 mph 69.3% 0 in 511 W/m2
16:24 85.3 °F 73.8 °F 29.8 in South 3.4 mph 10.1 mph 68.8% 0 in 509 W/m2
16:29 85.5 °F 74.3 °F 29.8 in South 5.7 mph 12.5 mph 69.3% 0 in 512 W/m2
16:34 85.3 °F 74.5 °F 29.8 in South 4.7 mph 12.5 mph 70.2% 0 in 506 W/m2
16:39 85.5 °F 74.3 °F 29.8 in South 3.6 mph 12.5 mph 69.1% 0 in 500 W/m2
16:44 85.6 °F 74.1 °F 29.8 in SSE 6.3 mph 17.4 mph 68.7% 0 in 495 W/m2
16:49 85.5 °F 73.9 °F 29.8 in SSE 5.8 mph 17.4 mph 68.3% 0 in 493 W/m2
16:54 85.5 °F 73.2 °F 29.8 in South 4.8 mph 15 mph 67.1% 0 in 485 W/m2
16:59 85.5 °F 73.2 °F 29.8 in South 4.2 mph 10.1 mph 67.2% 0 in 491 W/m2
17:04 85.5 °F 73.2 °F 29.8 in South 3.5 mph 10.1 mph 66.8% 0 in 489 W/m2
17:09 85.5 °F 72.5 °F 29.8 in SSE 5.9 mph 12.5 mph 65.3% 0 in 483 W/m2
17:14 85.5 °F 72.7 °F 29.8 in South 3.5 mph 12.5 mph 65.8% 0 in 482 W/m2
17:19 85.3 °F 72.5 °F 29.8 in South 4 mph 12.5 mph 65.6% 0 in 478 W/m2
17:24 85.5 °F 72 °F 29.8 in South 4.3 mph 12.5 mph 64.2% 0 in 480 W/m2
17:29 85.5 °F 71.4 °F 29.8 in South 6.6 mph 12.5 mph 63.1% 0 in 469 W/m2
17:34 85.5 °F 71.2 °F 29.8 in South 2.2 mph 10.1 mph 62.8% 0 in 461 W/m2
17:39 85.3 °F 71.2 °F 29.8 in South 4.9 mph 12.5 mph 62.9% 0 in 459 W/m2
17:44 84.9 °F 70.9 °F 29.8 in South 3.9 mph 12.5 mph 63% 0 in 456 W/m2
17:49 84.9 °F 70.9 °F 29.8 in South 5.8 mph 12.5 mph 63% 0 in 445 W/m2
17:54 84.7 °F 70.7 °F 29.8 in South 5.3 mph 12.5 mph 62.6% 0 in 438 W/m2
17:59 84.7 °F 70.3 °F 29.8 in South 4 mph 10.1 mph 62% 0 in 433 W/m2
18:04 84.4 °F 70 °F 29.8 in South 4.1 mph 10.1 mph 62% 0 in 429 W/m2
18:09 84.4 °F 70 °F 29.8 in South 3.9 mph 12.5 mph 62.1% 0 in 424 W/m2
18:14 84.4 °F 70 °F 29.8 in South 5.3 mph 12.5 mph 62.1% 0 in 414 W/m2
18:19 84.2 °F 69.8 °F 29.8 in South 3.9 mph 12.5 mph 62% 0 in 405 W/m2
18:24 83.8 °F 70 °F 29.8 in South 3.4 mph 10.1 mph 63.1% 0 in 402 W/m2
18:29 83.8 °F 70.3 °F 29.8 in South 5.3 mph 12.5 mph 64.3% 0 in 397 W/m2
18:34 83.7 °F 71.1 °F 29.8 in SSE 5.2 mph 10.1 mph 66.1% 0 in 95 W/m2
18:39 83.1 °F 71.4 °F 29.8 in South 3.9 mph 12.5 mph 67.9% 0 in 66 W/m2
18:44 81.3 °F 70.3 °F 29.8 in South 4.5 mph 12.5 mph 69.6% 0 in 62 W/m2
18:49 81.3 °F 70.5 °F 29.8 in South 5.7 mph 12.5 mph 70.1% 0 in 59 W/m2
18:54 81.1 °F 70.3 °F 29.8 in SSE 6.2 mph 15 mph 70.1% 0 in 58 W/m2
18:59 81 °F 70.5 °F 29.8 in SSE 4 mph 12.5 mph 70.8% 0 in 56 W/m2
19:04 80.1 °F 69.8 °F 29.8 in South 5.4 mph 10.1 mph 71.4% 0 in 55 W/m2
19:09 79.9 °F 70 °F 29.8 in South 4.2 mph 12.5 mph 72% 0 in 54 W/m2
19:14 79.9 °F 70 °F 29.8 in South 4.7 mph 10.1 mph 72% 0 in 53 W/m2
19:19 79.7 °F 69.8 °F 29.8 in South 4.6 mph 10.1 mph 72% 0 in 51 W/m2
19:24 79.2 °F 69.8 °F 29.8 in South 4 mph 10.1 mph 72.9% 0 in 50 W/m2
19:29 79.2 °F 69.8 °F 29.8 in SSE 2.9 mph 7.6 mph 73% 0 in 49 W/m2
19:34 79.2 °F 69.8 °F 29.8 in South 3.4 mph 10.1 mph 73.2% 0 in 48 W/m2
19:39 79 °F 70 °F 29.8 in South 2.1 mph 10.1 mph 74.1% 0 in 46 W/m2
19:44 78.3 °F 69.8 °F 29.8 in South 2.6 mph 7.6 mph 75.4% 0 in 44 W/m2
19:49 78.3 °F 70.5 °F 29.8 in SSE 1.9 mph 7.6 mph 76.9% 0 in 43 W/m2
19:54 78.3 °F 70.9 °F 29.8 in South 3 mph 10.1 mph 77.9% 0 in 42 W/m2
19:59 78.1 °F 71.1 °F 29.8 in South 4.4 mph 10.1 mph 79% 0 in 39 W/m2
20:04 77.2 °F 70.3 °F 29.8 in South 0.8 mph 10.1 mph 79.6% 0 in 34 W/m2
20:09 77.2 °F 70.9 °F 29.8 in Calm   2.5 mph 80.8% 0 in 30 W/m2
20:14 77 °F 70.7 °F 29.8 in Calm   2.5 mph 81% 0 in 28 W/m2
20:19 76.8 °F 70.9 °F 29.8 in Calm   2.5 mph 82% 0 in 28 W/m2
20:24 75.6 °F 69.8 °F 29.8 in Calm     82.3% 0 in 25 W/m2
20:29 75.6 °F 70 °F 29.8 in Calm     83.2% 0 in 23 W/m2
20:34 75.6 °F 70 °F 29.8 in Calm     83.2% 0 in 21 W/m2
20:39 75.4 °F 69.8 °F 29.8 in Calm     83% 0 in 14 W/m2
20:44 75 °F 69.3 °F 29.8 in Calm     82.4% 0 in 11 W/m2
20:49 75 °F 69.3 °F 29.8 in Calm     82.4% 0 in 9 W/m2
20:54 74.8 °F 69.8 °F 29.8 in Calm     84.3% 0 in 6 W/m2
20:59 74.8 °F 70 °F 29.8 in Calm     85.1% 0 in 4 W/m2
21:04 74.1 °F 69.3 °F 29.8 in Calm     85% 0 in 2 W/m2
21:09 74.1 °F 69.4 °F 29.8 in Calm     85.7% 0 in 0 W/m2
21:14 74.1 °F 69.6 °F 29.8 in Calm     86.1% 0 in 0 W/m2
21:19 74.1 °F 70 °F 29.8 in Calm     87% 0 in 0 W/m2
21:24 73.6 °F 69.6 °F 29.8 in Calm     87.2% 0 in 0 W/m2
21:29 73.4 °F 69.4 °F 29.8 in Calm     87.3% 0 in 0 W/m2
21:34 73.4 °F 69.1 °F 29.8 in Calm     86.6% 0 in 0 W/m2
21:39 73.2 °F 69.1 °F 29.8 in Calm     87.2% 0 in 0 W/m2
21:44 72.5 °F 68.7 °F 29.8 in Calm     88% 0 in 0 W/m2
21:49 72.5 °F 68.7 °F 29.8 in Calm     88% 0 in 0 W/m2
21:54 72.5 °F 69.1 °F 29.8 in Calm   2.5 mph 89% 0 in 0 W/m2
21:59 72.5 °F 69.3 °F 29.8 in Calm     89.8% 0 in 0 W/m2
22:04 71.8 °F 68.7 °F 29.8 in Calm     89.9% 0 in 0 W/m2
22:09 71.6 °F 68.5 °F 29.8 in Calm     90% 0 in 0 W/m2
22:14 71.6 °F 68.7 °F 29.8 in Calm     90.3% 0 in 0 W/m2
22:19 71.6 °F 68.9 °F 29.8 in Calm     91% 0 in 0 W/m2
22:24 71.1 °F 68.5 °F 29.8 in Calm     91.4% 0 in 0 W/m2
22:29 70.9 °F 68.4 °F 29.8 in Calm     92% 0 in 0 W/m2
22:34 70.9 °F 68.5 °F 29.8 in Calm     92.7% 0 in 0 W/m2
22:39 70.9 °F 68.7 °F 29.8 in Calm     93% 0 in 0 W/m2
22:44 70.5 °F 68.4 °F 29.8 in Calm     92.8% 0 in 0 W/m2
22:49 70.5 °F 68.4 °F 29.8 in Calm     93% 0 in 0 W/m2
22:54 70.5 °F 68.5 °F 29.8 in Calm     93.3% 0 in 0 W/m2
22:59 70.3 °F 67.8 °F 29.8 in Calm     92% 0 in 0 W/m2
23:04 70.7 °F 67.3 °F 29.8 in Calm     88.9% 0 in 0 W/m2
23:09 70.9 °F 66.7 °F 29.8 in South 0.2 mph 4.9 mph 86.9% 0 in 0 W/m2
23:14 70.9 °F 66.2 °F 29.8 in South 0.2 mph 4.9 mph 85.1% 0 in 0 W/m2
23:19 70.9 °F 65.5 °F 29.8 in South 3 mph 10.1 mph 82.8% 0 in 0 W/m2
23:24 71.6 °F 66 °F 29.8 in South 1.6 mph 7.6 mph 82.4% 0 in 0 W/m2
23:29 71.8 °F 66 °F 29.8 in SSW 1.2 mph 10.1 mph 82.1% 0 in 0 W/m2
23:34 71.8 °F 66.2 °F 29.8 in South 0.4 mph 7.6 mph 82.3% 0 in 0 W/m2
23:39 71.8 °F 66.6 °F 29.8 in Calm     83.8% 0 in 0 W/m2
23:44 71.4 °F 66.4 °F 29.8 in Calm   4.9 mph 84% 0 in 0 W/m2
23:49 71.2 °F 65.8 °F 29.8 in SW 0.1 mph 2.5 mph 83.2% 0 in 0 W/m2
23:54 71.2 °F 65.8 °F 29.8 in Calm     83% 0 in 0 W/m2
23:59 71.2 °F 65.8 °F 29.8 in Calm     83% 0 in 0 W/m2
Juneau County Weather
Compliments of Weather Underground - 2 mb